Time,TemperatureF,DewpointF,PressureIn,WindDirection,WindDirectionDegrees,WindSpeedMPH,WindSpeedGustMPH,Humidity,HourlyPrecipIn,Conditions,Clouds,dailyrainin,SoftwareType,DateUTC
2013-03-17 00:03:00,50.0,48.0,-100.00,SW,226,1.0,4.0,93,0.00,,,0.28,,2013-03-17 04:03:00,
2013-03-17 00:13:00,50.0,48.0,-100.00,SW,226,1.0,4.0,93,0.00,,,0.28,,2013-03-17 04:13:00,
2013-03-17 00:23:00,50.0,48.0,-100.00,WSW,247,1.0,3.0,94,0.00,,,0.28,,2013-03-17 04:23:00,
2013-03-17 00:33:00,50.0,48.0,-100.00,WSW,247,1.0,3.0,94,0.00,,,0.28,,2013-03-17 04:33:00,
2013-03-17 00:43:00,49.0,47.0,-100.00,SW,226,2.0,3.0,94,0.00,,,0.28,,2013-03-17 04:43:00,
2013-03-17 00:53:00,49.0,47.0,-100.00,SW,219,1.0,3.0,94,0.00,,,0.28,,2013-03-17 04:53:00,
2013-03-17 01:03:00,49.0,47.0,-100.00,SW,219,1.0,3.0,94,0.00,,,0.28,,2013-03-17 05:03:00,
2013-03-17 01:12:00,49.0,47.0,-100.00,SW,219,1.0,3.0,94,0.00,,,0.28,,2013-03-17 05:12:00,
2013-03-17 01:22:00,48.0,47.0,-100.00,SSW,200,2.0,4.0,94,0.00,,,0.28,,2013-03-17 05:22:00,
2013-03-17 01:32:00,48.0,47.0,-100.00,SSW,200,2.0,4.0,94,0.00,,,0.28,,2013-03-17 05:32:00,
2013-03-17 01:42:00,49.0,48.0,-100.00,SSW,200,1.0,3.0,95,0.00,,,0.28,,2013-03-17 05:42:00,
2013-03-17 01:52:00,49.0,48.0,-100.00,SSW,200,1.0,3.0,95,0.00,,,0.28,,2013-03-17 05:52:00,
2013-03-17 02:02:00,50.0,48.0,-100.00,SSE,164,0.0,2.0,95,0.00,,,0.28,,2013-03-17 06:02:00,
2013-03-17 02:12:00,50.0,48.0,-100.00,SSE,164,0.0,2.0,95,0.00,,,0.28,,2013-03-17 06:12:00,
2013-03-17 02:22:00,50.0,49.0,-100.00,SSW,213,1.0,3.0,94,0.00,,,0.28,,2013-03-17 06:22:00,
2013-03-17 02:32:00,50.0,49.0,-100.00,SSW,213,1.0,3.0,94,0.00,,,0.28,,2013-03-17 06:32:00,
2013-03-17 02:42:00,51.0,49.0,-100.00,SW,217,0.0,3.0,94,0.00,,,0.28,,2013-03-17 06:42:00,
2013-03-17 02:53:00,51.0,49.0,-100.00,SW,217,0.0,3.0,94,0.00,,,0.28,,2013-03-17 06:53:00,
2013-03-17 03:02:00,51.0,48.0,-100.00,West,275,1.0,2.0,92,0.00,,,0.28,,2013-03-17 07:02:00,
2013-03-17 03:12:00,51.0,48.0,-100.00,West,275,1.0,2.0,92,0.00,,,0.28,,2013-03-17 07:12:00,
2013-03-17 03:22:00,51.0,48.0,-100.00,West,261,1.0,3.0,88,0.00,,,0.28,,2013-03-17 07:22:00,
2013-03-17 03:32:00,51.0,48.0,-100.00,West,261,1.0,3.0,88,0.00,,,0.28,,2013-03-17 07:32:00,
2013-03-17 03:42:00,52.0,47.0,-100.00,WSW,256,0.0,2.0,85,0.00,,,0.28,,2013-03-17 07:42:00,
2013-03-17 03:52:00,49.0,45.0,-100.00,West,267,0.0,1.0,86,0.00,,,0.28,,2013-03-17 07:52:00,
2013-03-17 04:03:00,49.0,45.0,-100.00,West,267,0.0,1.0,86,0.00,,,0.28,,2013-03-17 08:03:00,
2013-03-17 04:13:00,49.0,45.0,-100.00,West,267,0.0,1.0,86,0.00,,,0.28,,2013-03-17 08:13:00,
2013-03-17 04:22:00,49.0,45.0,-100.00,SE,134,0.0,2.0,89,0.00,,,0.28,,2013-03-17 08:22:00,
2013-03-17 04:33:00,49.0,45.0,-100.00,SE,134,0.0,2.0,89,0.00,,,0.28,,2013-03-17 08:33:00,
2013-03-17 04:42:00,47.0,45.0,-100.00,SSW,195,1.0,2.0,91,0.00,,,0.28,,2013-03-17 08:42:00,
2013-03-17 04:52:00,47.0,45.0,-100.00,SSW,195,1.0,2.0,91,0.00,,,0.28,,2013-03-17 08:52:00,
2013-03-17 05:03:00,48.0,46.0,-100.00,South,171,1.0,2.0,91,0.00,,,0.28,,2013-03-17 09:03:00,
2013-03-17 05:13:00,48.0,46.0,-100.00,South,171,1.0,2.0,91,0.00,,,0.28,,2013-03-17 09:13:00,
2013-03-17 05:22:00,49.0,46.0,-100.00,NW,315,0.0,3.0,90,0.00,,,0.28,,2013-03-17 09:22:00,
2013-03-17 05:32:00,49.0,46.0,-100.00,NW,315,0.0,3.0,90,0.00,,,0.28,,2013-03-17 09:32:00,
2013-03-17 05:43:00,48.0,45.0,-100.00,WNW,296,0.0,3.0,90,0.00,,,0.28,,2013-03-17 09:43:00,
2013-03-17 05:53:00,48.0,45.0,-100.00,WNW,296,0.0,3.0,90,0.00,,,0.28,,2013-03-17 09:53:00,
2013-03-17 06:03:00,47.0,45.0,-100.00,SW,217,2.0,4.0,92,0.00,,,0.28,,2013-03-17 10:03:00,
2013-03-17 06:13:00,47.0,45.0,-100.00,SW,217,2.0,4.0,92,0.00,,,0.28,,2013-03-17 10:13:00,
2013-03-17 06:23:00,48.0,45.0,-100.00,NE,56,1.0,3.0,90,0.00,,,0.28,,2013-03-17 10:23:00,
2013-03-17 06:33:00,48.0,45.0,-100.00,NE,56,1.0,3.0,90,0.00,,,0.28,,2013-03-17 10:33:00,
2013-03-17 06:42:00,48.0,45.0,-100.00,SW,227,1.0,3.0,90,0.00,,,0.28,,2013-03-17 10:42:00,
2013-03-17 06:53:00,48.0,45.0,-100.00,SW,227,1.0,3.0,90,0.00,,,0.28,,2013-03-17 10:53:00,
2013-03-17 07:03:00,50.0,45.0,-100.00,SSE,152,1.0,3.0,83,0.00,,,0.26,,2013-03-17 11:03:00,
2013-03-17 07:12:00,50.0,45.0,-100.00,SSE,152,1.0,3.0,83,0.00,,,0.26,,2013-03-17 11:12:00,
2013-03-17 07:22:00,50.0,45.0,-100.00,SW,223,2.0,6.0,84,0.00,,,0.14,,2013-03-17 11:22:00,
2013-03-17 07:32:00,50.0,45.0,-100.00,SW,223,2.0,6.0,84,0.00,,,0.14,,2013-03-17 11:32:00,
2013-03-17 07:42:00,51.0,45.0,-100.00,WSW,247,1.0,3.0,80,0.00,,,0.13,,2013-03-17 11:42:00,
2013-03-17 07:52:00,51.0,45.0,-100.00,WSW,247,1.0,3.0,80,0.00,,,0.13,,2013-03-17 11:52:00,
2013-03-17 08:02:00,50.0,43.0,-100.00,ESE,120,4.0,8.0,77,0.00,,,0.13,,2013-03-17 12:02:00,
2013-03-17 08:12:00,50.0,43.0,-100.00,ESE,120,4.0,8.0,77,0.00,,,0.13,,2013-03-17 12:12:00,
2013-03-17 08:22:00,49.0,42.0,-100.00,South,169,5.0,10.0,78,0.00,,,0.13,,2013-03-17 12:22:00,
2013-03-17 08:33:00,49.0,42.0,-100.00,South,169,5.0,10.0,78,0.00,,,0.13,,2013-03-17 12:33:00,
2013-03-17 08:43:00,48.0,43.0,-100.00,SSE,152,1.0,2.0,82,0.03,,,0.14,,2013-03-17 12:43:00,
2013-03-17 08:52:00,48.0,43.0,-100.00,SSE,152,1.0,2.0,82,0.03,,,0.14,,2013-03-17 12:52:00,
2013-03-17 09:02:00,48.0,44.0,-100.00,SSW,209,1.0,3.0,85,0.00,,,0.14,,2013-03-17 13:02:00,
2013-03-17 09:13:00,48.0,44.0,-100.00,SSW,209,1.0,3.0,85,0.00,,,0.14,,2013-03-17 13:13:00,
2013-03-17 09:22:00,47.0,43.0,-100.00,SW,232,2.0,4.0,86,0.00,,,0.14,,2013-03-17 13:22:00,
2013-03-17 09:32:00,47.0,43.0,-100.00,SW,232,2.0,4.0,86,0.00,,,0.14,,2013-03-17 13:32:00,
2013-03-17 09:43:00,47.0,43.0,-100.00,NW,308,1.0,3.0,87,0.27,,,0.17,,2013-03-17 13:43:00,
2013-03-17 09:53:00,47.0,43.0,-100.00,NW,308,1.0,3.0,87,0.27,,,0.17,,2013-03-17 13:53:00,
2013-03-17 10:02:00,46.0,43.0,-100.00,SSE,147,2.0,3.0,87,0.52,,,0.22,,2013-03-17 14:02:00,
2013-03-17 10:12:00,46.0,43.0,-100.00,SSE,147,2.0,3.0,87,0.52,,,0.22,,2013-03-17 14:12:00,
2013-03-17 10:22:00,45.0,43.0,-100.00,NE,34,4.0,9.0,92,0.23,,,0.33,,2013-03-17 14:22:00,
2013-03-17 10:33:00,45.0,43.0,-100.00,NE,34,4.0,9.0,92,0.23,,,0.33,,2013-03-17 14:33:00,
2013-03-17 10:42:00,44.0,42.0,-100.00,NE,42,6.0,9.0,93,0.13,,,0.38,,2013-03-17 14:42:00,
2013-03-17 10:53:00,44.0,42.0,-100.00,NE,42,6.0,9.0,93,0.13,,,0.38,,2013-03-17 14:53:00,
2013-03-17 11:02:00,44.0,42.0,-100.00,NE,44,7.0,11.0,94,0.03,,,0.42,,2013-03-17 15:02:00,
2013-03-17 11:12:00,44.0,42.0,-100.00,NE,44,7.0,11.0,94,0.03,,,0.42,,2013-03-17 15:12:00,
2013-03-17 11:23:00,43.0,42.0,-100.00,NE,45,9.0,15.0,94,0.00,,,0.42,,2013-03-17 15:23:00,
2013-03-17 11:33:00,43.0,42.0,-100.00,NE,45,9.0,15.0,94,0.00,,,0.42,,2013-03-17 15:33:00,
2013-03-17 11:43:00,43.0,42.0,-100.00,NE,47,9.0,13.0,93,0.00,,,0.42,,2013-03-17 15:43:00,
2013-03-17 11:53:00,43.0,42.0,-100.00,NE,47,9.0,13.0,93,0.00,,,0.42,,2013-03-17 15:53:00,
2013-03-17 12:03:00,43.0,41.0,-100.00,NE,48,9.0,13.0,92,0.00,,,0.42,,2013-03-17 16:03:00,
2013-03-17 12:13:00,43.0,41.0,-100.00,NE,48,9.0,13.0,92,0.00,,,0.42,,2013-03-17 16:13:00,
2013-03-17 12:23:00,43.0,41.0,-100.00,NE,49,9.0,15.0,91,0.00,,,0.42,,2013-03-17 16:23:00,
2013-03-17 12:33:00,43.0,41.0,-100.00,NE,49,9.0,15.0,91,0.00,,,0.42,,2013-03-17 16:33:00,
2013-03-17 12:43:00,43.0,40.0,-100.00,NE,48,9.0,13.0,92,0.00,,,0.42,,2013-03-17 16:43:00,
2013-03-17 12:53:00,43.0,40.0,-100.00,NE,48,9.0,13.0,92,0.00,,,0.42,,2013-03-17 16:53:00,
2013-03-17 13:03:00,42.0,40.0,-100.00,NE,49,10.0,16.0,92,0.00,,,0.42,,2013-03-17 17:03:00,
2013-03-17 13:12:00,42.0,40.0,-100.00,NE,49,10.0,16.0,92,0.00,,,0.42,,2013-03-17 17:12:00,
2013-03-17 13:22:00,42.0,40.0,-100.00,NE,48,8.0,14.0,91,0.00,,,0.42,,2013-03-17 17:22:00,
2013-03-17 13:33:00,42.0,40.0,-100.00,NE,48,8.0,14.0,91,0.00,,,0.42,,2013-03-17 17:33:00,
2013-03-17 13:42:00,42.0,40.0,-100.00,NE,41,9.0,16.0,90,0.00,,,0.42,,2013-03-17 17:42:00,
2013-03-17 13:53:00,42.0,40.0,-100.00,NE,41,9.0,16.0,90,0.00,,,0.42,,2013-03-17 17:53:00,
2013-03-17 14:02:00,42.0,40.0,-100.00,NE,51,7.0,12.0,92,0.00,,,0.43,,2013-03-17 18:02:00,
2013-03-17 14:12:00,42.0,40.0,-100.00,NE,51,7.0,12.0,92,0.00,,,0.43,,2013-03-17 18:12:00,
2013-03-17 14:22:00,42.0,40.0,-100.00,NE,51,7.0,12.0,92,0.00,,,0.43,,2013-03-17 18:22:00,
2013-03-17 14:42:00,42.0,40.0,-100.00,NE,52,7.0,11.0,91,0.00,,,0.43,,2013-03-17 18:42:00,
2013-03-17 14:52:00,42.0,40.0,-100.00,NE,52,7.0,11.0,91,0.00,,,0.43,,2013-03-17 18:52:00,
2013-03-17 15:02:00,42.0,40.0,-100.00,NE,56,5.0,9.0,91,0.00,,,0.43,,2013-03-17 19:02:00,
2013-03-17 15:12:00,42.0,40.0,-100.00,NE,56,5.0,9.0,91,0.00,,,0.43,,2013-03-17 19:12:00,
2013-03-17 15:23:00,42.0,40.0,-100.00,NE,47,6.0,9.0,90,0.00,,,0.43,,2013-03-17 19:23:00,
2013-03-17 15:33:00,42.0,40.0,-100.00,NE,47,6.0,9.0,90,0.00,,,0.43,,2013-03-17 19:33:00,
2013-03-17 15:42:00,42.0,39.0,-100.00,NE,41,6.0,11.0,88,0.00,,,0.43,,2013-03-17 19:42:00,
2013-03-17 15:53:00,42.0,39.0,-100.00,NE,41,6.0,11.0,88,0.00,,,0.43,,2013-03-17 19:53:00,
2013-03-17 16:02:00,42.0,39.0,-100.00,NE,52,5.0,9.0,88,0.00,,,0.43,,2013-03-17 20:02:00,
2013-03-17 16:12:00,42.0,39.0,-100.00,NE,52,5.0,9.0,88,0.00,,,0.43,,2013-03-17 20:12:00,
2013-03-17 16:22:00,42.0,39.0,-100.00,NNE,32,8.0,13.0,88,0.00,,,0.43,,2013-03-17 20:22:00,
2013-03-17 16:33:00,42.0,39.0,-100.00,NNE,32,8.0,13.0,88,0.00,,,0.43,,2013-03-17 20:33:00,
2013-03-17 16:42:00,42.0,38.0,-100.00,NE,38,7.0,13.0,88,0.00,,,0.43,,2013-03-17 20:42:00,
2013-03-17 16:52:00,42.0,38.0,-100.00,NE,38,7.0,13.0,88,0.00,,,0.43,,2013-03-17 20:52:00,
2013-03-17 17:03:00,42.0,38.0,-100.00,NE,37,7.0,11.0,87,0.00,,,0.43,,2013-03-17 21:03:00,
2013-03-17 17:12:00,42.0,38.0,-100.00,NE,37,7.0,11.0,87,0.00,,,0.43,,2013-03-17 21:12:00,
2013-03-17 17:23:00,42.0,38.0,-100.00,NE,34,9.0,14.0,86,0.00,,,0.43,,2013-03-17 21:23:00,
2013-03-17 17:33:00,41.0,38.0,-100.00,NE,51,8.0,13.0,88,0.00,,,0.43,,2013-03-17 21:33:00,
2013-03-17 17:43:00,41.0,38.0,-100.00,NE,51,8.0,13.0,88,0.00,,,0.43,,2013-03-17 21:43:00,
2013-03-17 17:52:00,41.0,38.0,-100.00,NE,51,8.0,13.0,88,0.00,,,0.43,,2013-03-17 21:52:00,
2013-03-17 18:03:00,41.0,38.0,-100.00,NE,42,9.0,13.0,87,0.00,,,0.32,,2013-03-17 22:03:00,
2013-03-17 18:13:00,41.0,38.0,-100.00,NE,42,9.0,13.0,87,0.00,,,0.32,,2013-03-17 22:13:00,
2013-03-17 18:23:00,41.0,38.0,-100.00,NE,49,6.0,11.0,88,0.00,,,0.32,,2013-03-17 22:23:00,
2013-03-17 18:33:00,41.0,38.0,-100.00,NE,49,6.0,11.0,88,0.00,,,0.32,,2013-03-17 22:33:00,
2013-03-17 18:42:00,41.0,38.0,-100.00,NE,52,6.0,11.0,88,0.00,,,0.32,,2013-03-17 22:42:00,
2013-03-17 18:53:00,41.0,38.0,-100.00,NE,52,6.0,11.0,88,0.00,,,0.32,,2013-03-17 22:53:00,
2013-03-17 19:03:00,41.0,38.0,-100.00,NE,48,6.0,10.0,88,0.00,,,0.32,,2013-03-17 23:03:00,
2013-03-17 19:13:00,41.0,38.0,-100.00,NE,48,6.0,10.0,88,0.00,,,0.32,,2013-03-17 23:13:00,
2013-03-17 19:22:00,40.0,38.0,-100.00,NE,49,7.0,11.0,89,0.00,,,0.32,,2013-03-17 23:22:00,
2013-03-17 19:33:00,40.0,38.0,-100.00,NE,49,7.0,11.0,89,0.00,,,0.32,,2013-03-17 23:33:00,
2013-03-17 19:43:00,40.0,38.0,-100.00,NE,48,4.0,9.0,91,0.00,,,0.32,,2013-03-17 23:43:00,
2013-03-17 19:53:00,40.0,38.0,-100.00,NE,48,4.0,9.0,91,0.00,,,0.32,,2013-03-17 23:53:00,
2013-03-17 20:03:00,40.0,37.0,-100.00,NE,44,6.0,12.0,91,0.00,,,0.32,,2013-03-18 00:03:00,
2013-03-17 20:13:00,40.0,37.0,-100.00,NE,44,6.0,12.0,91,0.00,,,0.32,,2013-03-18 00:13:00,
2013-03-17 20:22:00,39.0,37.0,-100.00,NE,41,5.0,13.0,91,0.00,,,0.32,,2013-03-18 00:22:00,
2013-03-17 20:33:00,39.0,37.0,-100.00,NE,41,5.0,13.0,91,0.00,,,0.32,,2013-03-18 00:33:00,
2013-03-17 20:42:00,39.0,36.0,-100.00,North,1,4.0,12.0,89,0.00,,,0.32,,2013-03-18 00:42:00,
2013-03-17 20:53:00,39.0,36.0,-100.00,North,1,4.0,12.0,89,0.00,,,0.32,,2013-03-18 00:53:00,
2013-03-17 21:02:00,39.0,36.0,-100.00,North,10,4.0,10.0,89,0.00,,,0.32,,2013-03-18 01:02:00,
2013-03-17 21:12:00,39.0,36.0,-100.00,North,10,4.0,10.0,89,0.00,,,0.32,,2013-03-18 01:12:00,
2013-03-17 21:22:00,39.0,36.0,-100.00,NNE,28,4.0,9.0,90,0.01,,,0.33,,2013-03-18 01:22:00,
2013-03-17 21:33:00,39.0,36.0,-100.00,NNE,28,4.0,9.0,90,0.01,,,0.33,,2013-03-18 01:33:00,
2013-03-17 21:42:00,39.0,36.0,-100.00,NE,37,3.0,7.0,90,0.18,,,0.34,,2013-03-18 01:42:00,
2013-03-17 21:52:00,39.0,36.0,-100.00,NE,37,3.0,7.0,90,0.18,,,0.34,,2013-03-18 01:52:00,
2013-03-17 22:02:00,38.0,36.0,-100.00,NE,42,4.0,6.0,92,0.35,,,0.44,,2013-03-18 02:02:00,
2013-03-17 22:12:00,38.0,36.0,-100.00,NE,42,4.0,6.0,92,0.35,,,0.44,,2013-03-18 02:12:00,
2013-03-17 22:22:00,38.0,36.0,-100.00,ENE,65,4.0,7.0,93,0.28,,,0.51,,2013-03-18 02:22:00,
2013-03-17 22:32:00,38.0,36.0,-100.00,ENE,65,4.0,7.0,93,0.28,,,0.51,,2013-03-18 02:32:00,
2013-03-17 22:42:00,38.0,36.0,-100.00,NNE,32,6.0,9.0,94,0.33,,,0.60,,2013-03-18 02:42:00,
2013-03-17 22:52:00,38.0,36.0,-100.00,NNE,27,4.0,7.0,93,0.20,,,0.67,,2013-03-18 02:52:00,
2013-03-17 23:03:00,38.0,36.0,-100.00,NNE,27,4.0,7.0,93,0.20,,,0.67,,2013-03-18 03:03:00,
2013-03-17 23:12:00,38.0,36.0,-100.00,NNE,27,4.0,7.0,93,0.20,,,0.67,,2013-03-18 03:12:00,
2013-03-17 23:22:00,38.0,36.0,-100.00,ENE,72,2.0,5.0,93,0.13,,,0.73,,2013-03-18 03:22:00,
2013-03-17 23:33:00,38.0,36.0,-100.00,ENE,72,2.0,5.0,93,0.13,,,0.73,,2013-03-18 03:33:00,
2013-03-17 23:42:00,37.0,36.0,-100.00,ENE,58,2.0,5.0,94,0.11,,,0.81,,2013-03-18 03:42:00,
2013-03-17 23:53:00,37.0,36.0,-100.00,ENE,58,2.0,5.0,94,0.11,,,0.81,,2013-03-18 03:53:00,